Últimos artigos:
Visita à exposição MOTION no Guggenheim de Bilbao
MSK144, FT8… using an IC-9700 and WSJT-X
Resolvendo um problema de áudio no GNU Radio
Converter um número Real para o formato binário em vírgula flutuante segundo a Norma IEEE-754
VirtualBox sobre Debian 10 (buster) não encontra dispositivos USB
Falta de som no Morse Runner em Linux?
Últimas fotos:
Últimos METARs:
LPAZ 020830Z 35026KT 9999 FEW020 13/05 Q10...
LPFR 020830Z 03006KT 9999 FEW020 11/09 Q10...
LPHR 020830Z 32007KT 290V020 9999 SCT017 S...
LPLA 020800Z /////KT 9999 SCT023 12/06 Q10...
LPMA 020830Z 01007KT 340V040 9999 SCT015 1...
LPPD 020830Z 35014KT 9999 FEW020 SCT030 11...
LPPR 020830Z 10012KT CAVOK 08/02 Q1012=
LPPS 020830Z 35013KT 9000 -DZ SCT012 SCT03...
LPPT 020830Z 01003KT 350V050 CAVOK 08/05 Q...
Últimos QSOs:
2022/11/06-21:07 2m CT1DMC (RUI)
2022/10/23-20:02 2m CT1ETE (PAULO)
2022/10/23-20:00 2m EA8BGO (JUAN)
2022/08/06-20:45 6m CT1ILT (FILIPE)
2022/08/05-09:40 2m CT2HKN (MG)
2022/08/05-09:37 2m CT1HIX/P ((GOMES))
  UTC
Rpi-6 CPU Temp: 0.0 °C (19Z)
IN51oq 0856Z /////KT //// 14/11 Q1012=
337310